createdAt,value
2024-02-29T00:01:02.066Z,10.17
2024-02-29T00:03:29.168Z,10.19
2024-02-29T00:05:57.928Z,10.24
2024-02-29T00:08:25.233Z,10.27
2024-02-29T00:10:54.108Z,10.26
2024-02-29T00:13:21.227Z,10.28
2024-02-29T00:15:48.557Z,10.30
2024-02-29T00:18:18.197Z,10.33
2024-02-29T00:20:45.330Z,10.35
2024-02-29T00:23:12.329Z,10.37
2024-02-29T00:25:39.555Z,10.32
2024-02-29T00:28:09.012Z,10.31
2024-02-29T00:30:36.199Z,10.30
2024-02-29T00:33:03.818Z,10.28
2024-02-29T00:35:30.817Z,10.24
2024-02-29T00:37:58.188Z,10.21
2024-02-29T00:40:25.667Z,10.22
2024-02-29T00:42:52.790Z,10.21
2024-02-29T00:45:21.529Z,10.17
2024-02-29T00:47:49.415Z,10.16
2024-02-29T00:50:16.806Z,10.14
2024-02-29T00:52:44.330Z,10.16
2024-02-29T00:55:11.594Z,10.13
2024-02-29T00:57:39.044Z,10.05
2024-02-29T01:00:11.686Z,10.01
2024-02-29T01:02:40.845Z,10.03
2024-02-29T01:05:08.695Z,9.97
2024-02-29T01:07:35.930Z,9.96
2024-02-29T01:10:04.343Z,9.98
2024-02-29T01:12:31.552Z,9.96
2024-02-29T01:14:59.074Z,9.92
2024-02-29T01:17:26.625Z,9.88
2024-02-29T01:19:55.376Z,9.88
2024-02-29T01:22:22.800Z,9.92
2024-02-29T01:24:49.917Z,9.96
2024-02-29T01:27:17.712Z,10.02
2024-02-29T01:29:45.491Z,10.05
2024-02-29T01:32:18.808Z,10.04
2024-02-29T01:34:54.462Z,9.98
2024-02-29T01:37:21.566Z,9.96
2024-02-29T01:39:48.627Z,9.94
2024-02-29T01:42:15.895Z,9.92
2024-02-29T01:44:53.694Z,9.89
2024-02-29T01:47:20.942Z,9.88
2024-02-29T01:49:49.956Z,9.86
2024-02-29T01:52:23.213Z,9.83
2024-02-29T01:54:50.627Z,9.81
2024-02-29T01:57:17.850Z,9.80
2024-02-29T01:59:48.233Z,9.84
2024-02-29T02:02:18.355Z,9.82
2024-02-29T02:04:45.563Z,9.71
2024-02-29T02:07:12.885Z,9.64
2024-02-29T02:09:41.821Z,9.57
2024-02-29T02:12:09.936Z,9.55
2024-02-29T02:14:37.128Z,9.50
2024-02-29T02:17:04.688Z,9.44
2024-02-29T02:19:31.815Z,9.39
2024-02-29T02:22:01.095Z,9.30
2024-02-29T02:24:28.110Z,9.26
2024-02-29T02:26:55.437Z,9.24
2024-02-29T02:29:22.684Z,9.23
2024-02-29T02:31:49.788Z,9.21
2024-02-29T02:34:16.904Z,9.16
2024-02-29T02:36:44.166Z,9.17
2024-02-29T02:42:41.968Z,9.03
2024-02-29T02:45:10.218Z,9.04
2024-02-29T02:47:37.364Z,9.02
2024-02-29T02:50:05.500Z,8.99
2024-02-29T02:52:33.020Z,8.97
2024-02-29T02:55:00.416Z,8.96
2024-02-29T02:57:28.121Z,8.87
2024-02-29T02:59:56.871Z,8.85
2024-02-29T03:02:23.953Z,8.86
2024-02-29T03:04:51.436Z,8.85
2024-02-29T03:07:19.195Z,8.79
2024-02-29T03:09:46.369Z,8.75
2024-02-29T03:12:13.674Z,8.59
2024-02-29T03:14:41.434Z,8.51
2024-02-29T03:17:10.473Z,8.44
2024-02-29T03:19:38.400Z,8.42
2024-02-29T03:22:06.138Z,8.34
2024-02-29T03:24:33.264Z,8.29
2024-02-29T03:27:00.779Z,8.25
2024-02-29T03:29:28.038Z,8.21
2024-02-29T03:31:55.496Z,8.16
2024-02-29T03:34:24.250Z,8.14
2024-02-29T03:36:51.886Z,8.06
2024-02-29T03:39:19.422Z,8.02
2024-02-29T03:41:47.018Z,7.98
2024-02-29T03:44:14.899Z,7.97
2024-02-29T03:46:42.016Z,7.90
2024-02-29T03:49:09.111Z,7.88
2024-02-29T03:51:37.698Z,7.88
2024-02-29T03:54:05.274Z,7.88
2024-02-29T03:56:32.321Z,7.95
2024-02-29T03:58:59.435Z,8.06
2024-02-29T04:01:26.593Z,8.09
2024-02-29T04:03:53.958Z,8.16
2024-02-29T04:06:21.007Z,8.26
2024-02-29T04:08:49.825Z,8.25
2024-02-29T04:11:17.107Z,8.32
2024-02-29T04:13:44.088Z,8.41
2024-02-29T04:16:11.525Z,8.43
2024-02-29T04:18:39.052Z,8.49
2024-02-29T04:21:06.402Z,8.47
2024-02-29T04:23:34.071Z,8.42
2024-02-29T04:26:03.002Z,8.44
2024-02-29T04:28:30.154Z,8.44
2024-02-29T04:30:57.262Z,8.49
2024-02-29T04:33:25.397Z,8.54
2024-02-29T04:35:53.077Z,8.55
2024-02-29T04:38:20.226Z,8.53
2024-02-29T04:40:47.549Z,8.52
2024-02-29T04:43:16.309Z,8.43
2024-02-29T04:45:43.631Z,8.43
2024-02-29T04:48:11.185Z,8.47
2024-02-29T04:50:38.320Z,8.53
2024-02-29T04:53:05.857Z,8.56
2024-02-29T04:55:33.659Z,8.57
2024-02-29T04:58:00.762Z,8.56
2024-02-29T05:00:29.772Z,8.56
2024-02-29T05:02:56.718Z,8.58
2024-02-29T05:05:23.902Z,8.59
2024-02-29T05:07:51.159Z,8.58
2024-02-29T05:10:18.728Z,8.58
2024-02-29T05:12:45.926Z,8.56
2024-02-29T05:15:13.505Z,8.61
2024-02-29T05:17:42.343Z,8.58
2024-02-29T05:20:10.971Z,8.56
2024-02-29T05:22:39.787Z,8.60
2024-02-29T05:25:08.458Z,8.63
2024-02-29T05:27:37.040Z,8.65
2024-02-29T05:30:04.961Z,8.65
2024-02-29T05:32:32.420Z,8.54
2024-02-29T05:35:02.011Z,8.49
2024-02-29T05:37:29.646Z,8.39
2024-02-29T05:39:57.265Z,8.38
2024-02-29T05:42:24.869Z,8.40
2024-02-29T05:44:51.978Z,8.42
2024-02-29T05:47:19.285Z,8.46
2024-02-29T05:49:46.850Z,8.49
2024-02-29T05:52:16.900Z,8.51
2024-02-29T05:54:44.188Z,8.54
2024-02-29T05:57:11.551Z,8.54
2024-02-29T05:59:39.142Z,8.58
2024-02-29T06:02:06.529Z,8.61
2024-02-29T06:04:33.760Z,8.59
2024-02-29T06:07:01.160Z,8.68
2024-02-29T06:09:30.807Z,8.70
2024-02-29T06:11:58.727Z,8.73
2024-02-29T06:14:26.459Z,8.75
2024-02-29T06:16:53.610Z,8.80
2024-02-29T06:19:21.208Z,8.91
2024-02-29T06:21:49.368Z,8.95
2024-02-29T06:24:16.716Z,8.98
2024-02-29T06:26:45.805Z,8.98
2024-02-29T06:29:13.450Z,9.01
2024-02-29T06:31:42.853Z,9.05
2024-02-29T06:34:10.615Z,8.94
2024-02-29T06:36:38.476Z,8.86
2024-02-29T06:39:06.286Z,8.80
2024-02-29T06:41:35.818Z,8.82
2024-02-29T06:44:05.167Z,8.87
2024-02-29T06:46:32.889Z,8.91
2024-02-29T06:49:01.050Z,9.00
2024-02-29T06:51:28.918Z,9.05
2024-02-29T06:53:56.090Z,9.08
2024-02-29T06:56:24.217Z,9.11
2024-02-29T06:58:51.592Z,9.13
2024-02-29T07:01:21.215Z,9.05
2024-02-29T07:03:48.834Z,8.99
2024-02-29T07:06:16.721Z,8.95
2024-02-29T07:08:46.484Z,8.90
2024-02-29T07:11:14.119Z,8.85
2024-02-29T07:13:41.284Z,8.78
2024-02-29T07:16:09.269Z,8.79
2024-02-29T07:18:38.197Z,8.78
2024-02-29T07:21:05.770Z,8.82
2024-02-29T07:23:33.204Z,8.82
2024-02-29T07:26:03.559Z,8.75
2024-02-29T07:28:31.498Z,8.76
2024-02-29T07:30:59.028Z,8.81
2024-02-29T07:33:26.433Z,8.86
2024-02-29T07:35:56.192Z,8.87
2024-02-29T07:38:23.530Z,8.88
2024-02-29T07:40:51.404Z,8.88
2024-02-29T07:43:18.794Z,8.91
2024-02-29T07:45:47.542Z,8.93
2024-02-29T07:48:15.844Z,8.88
2024-02-29T07:50:43.087Z,8.85
2024-02-29T07:53:12.423Z,8.83
2024-02-29T07:55:39.958Z,8.80
2024-02-29T07:58:07.721Z,8.83
2024-02-29T08:00:35.565Z,8.90
2024-02-29T08:03:03.008Z,8.84
2024-02-29T08:05:30.643Z,8.74
2024-02-29T08:07:58.366Z,8.72
2024-02-29T08:10:27.570Z,8.74
2024-02-29T08:12:55.209Z,8.72
2024-02-29T08:15:22.494Z,8.69
2024-02-29T08:17:50.080Z,8.69
2024-02-29T08:20:18.874Z,8.67
2024-02-29T08:22:46.404Z,8.73
2024-02-29T08:25:13.759Z,8.77
2024-02-29T08:27:45.223Z,8.84
2024-02-29T08:30:12.801Z,8.83
2024-02-29T08:32:40.223Z,8.88
2024-02-29T08:35:08.019Z,9.00
2024-02-29T08:37:35.399Z,9.07
2024-02-29T08:40:02.976Z,9.14
2024-02-29T08:42:30.601Z,9.27
2024-02-29T08:44:59.916Z,9.43
2024-02-29T08:47:28.710Z,9.50
2024-02-29T08:49:56.529Z,9.59
2024-02-29T08:52:25.731Z,9.66
2024-02-29T08:54:53.423Z,9.72
2024-02-29T08:57:23.279Z,9.86
2024-02-29T08:59:50.520Z,9.91
2024-02-29T09:02:19.639Z,9.92
2024-02-29T09:04:46.898Z,9.89
2024-02-29T09:07:14.334Z,9.89
2024-02-29T09:09:41.768Z,10.03
2024-02-29T09:12:09.887Z,10.19
2024-02-29T09:14:38.161Z,10.28
2024-02-29T09:17:05.296Z,10.35
2024-02-29T09:19:35.414Z,10.48
2024-02-29T09:22:03.538Z,10.64
2024-02-29T09:24:30.744Z,10.83
2024-02-29T09:26:58.124Z,11.00
2024-02-29T09:29:27.296Z,11.09
2024-02-29T09:31:55.256Z,11.25
2024-02-29T09:34:23.449Z,11.35
2024-02-29T09:36:52.137Z,11.47
2024-02-29T09:39:19.457Z,11.63
2024-02-29T09:42:08.257Z,11.80
2024-02-29T09:44:36.062Z,12.02
2024-02-29T09:47:03.707Z,12.23
2024-02-29T09:49:31.000Z,12.38
2024-02-29T09:52:01.732Z,12.53
2024-02-29T09:54:33.878Z,12.84
2024-02-29T09:57:02.488Z,13.24
2024-02-29T09:59:32.085Z,13.79
2024-02-29T10:02:00.743Z,14.55
2024-02-29T10:04:28.272Z,15.21
2024-02-29T10:06:55.645Z,16.09
2024-02-29T10:09:24.178Z,16.80
2024-02-29T10:11:54.607Z,17.29
2024-02-29T10:14:22.892Z,17.68
2024-02-29T10:16:51.758Z,18.73
2024-02-29T10:19:20.141Z,20.15
2024-02-29T10:21:48.081Z,21.34
2024-02-29T10:24:15.993Z,21.76
2024-02-29T10:26:45.161Z,22.47
2024-02-29T10:29:12.572Z,22.31
2024-02-29T10:31:40.131Z,22.74
2024-02-29T10:34:10.870Z,23.05
2024-02-29T10:36:38.535Z,23.67
2024-02-29T10:39:05.974Z,24.41
2024-02-29T10:41:34.273Z,23.73
2024-02-29T10:44:04.439Z,22.83
2024-02-29T10:46:32.569Z,22.71
2024-02-29T10:49:04.451Z,23.15
2024-02-29T10:51:44.352Z,24.48
2024-02-29T10:54:18.568Z,24.27
2024-02-29T10:56:47.240Z,24.08
2024-02-29T10:59:17.787Z,23.77
2024-02-29T11:01:46.366Z,23.43
2024-02-29T11:04:13.950Z,23.82
2024-02-29T11:06:44.121Z,23.99
2024-02-29T11:09:13.314Z,24.69
2024-02-29T11:11:40.878Z,25.31
2024-02-29T11:14:09.622Z,25.24
2024-02-29T11:16:41.720Z,24.88
2024-02-29T11:19:10.157Z,24.33
2024-02-29T11:21:37.746Z,24.08
2024-02-29T11:24:06.845Z,23.97
2024-02-29T11:26:35.848Z,23.52
2024-02-29T11:29:11.923Z,22.94
2024-02-29T11:31:45.305Z,22.20
2024-02-29T11:34:13.389Z,22.08
2024-02-29T11:36:42.224Z,21.92
2024-02-29T11:39:09.638Z,21.80
2024-02-29T11:41:38.203Z,22.22
2024-02-29T11:44:05.919Z,23.58
2024-02-29T11:46:33.446Z,24.87
2024-02-29T11:49:02.863Z,25.88
2024-02-29T11:51:30.472Z,26.51
2024-02-29T11:53:58.145Z,27.46
2024-02-29T11:56:26.454Z,27.93
2024-02-29T11:58:53.726Z,28.43
2024-02-29T12:01:21.857Z,28.98
2024-02-29T12:03:50.681Z,29.53
2024-02-29T12:06:20.336Z,29.34
2024-02-29T12:08:48.354Z,29.05
2024-02-29T12:11:16.752Z,28.58
2024-02-29T12:13:44.568Z,27.43
2024-02-29T12:16:14.593Z,26.64
2024-02-29T12:18:42.019Z,25.97
2024-02-29T12:21:09.850Z,25.36
2024-02-29T12:23:41.086Z,24.63
2024-02-29T12:26:11.006Z,23.59
2024-02-29T12:28:38.945Z,22.95
2024-02-29T12:31:08.382Z,22.11
2024-02-29T12:33:37.839Z,21.46
2024-02-29T12:36:06.900Z,20.85
2024-02-29T12:38:35.401Z,20.24
2024-02-29T12:41:05.960Z,20.12
2024-02-29T12:43:33.504Z,20.13
2024-02-29T12:46:00.892Z,20.00
2024-02-29T12:48:28.201Z,19.78
2024-02-29T12:50:55.539Z,19.61
2024-02-29T12:53:23.560Z,19.67
2024-02-29T12:55:50.713Z,19.68
2024-02-29T12:58:20.151Z,19.51
2024-02-29T13:00:47.732Z,19.25
2024-02-29T13:03:15.134Z,18.90
2024-02-29T13:05:42.447Z,18.78
2024-02-29T13:08:09.977Z,18.77
2024-02-29T13:10:37.462Z,19.12
2024-02-29T13:13:10.287Z,18.96
2024-02-29T13:15:39.888Z,18.57
2024-02-29T13:18:07.709Z,18.39
2024-02-29T13:20:35.445Z,18.11
2024-02-29T13:23:03.170Z,17.91
2024-02-29T13:25:30.872Z,17.88
2024-02-29T13:27:58.667Z,17.70
2024-02-29T13:30:26.276Z,17.27
2024-02-29T13:32:55.384Z,16.99
2024-02-29T13:35:22.735Z,16.78
2024-02-29T13:37:50.007Z,16.46
2024-02-29T13:40:17.535Z,16.25
2024-02-29T13:42:45.767Z,16.07
2024-02-29T13:45:13.287Z,15.95
2024-02-29T13:47:48.525Z,15.77
2024-02-29T13:50:17.624Z,15.62
2024-02-29T13:52:44.989Z,15.45
2024-02-29T13:55:12.726Z,15.17
2024-02-29T13:57:40.895Z,15.14
2024-02-29T14:00:08.960Z,15.15
2024-02-29T14:02:36.491Z,14.97
2024-02-29T14:05:04.694Z,14.86
2024-02-29T14:07:34.204Z,14.79
2024-02-29T14:10:01.783Z,14.75
2024-02-29T14:12:29.512Z,14.71
2024-02-29T14:14:57.215Z,14.54
2024-02-29T14:17:24.399Z,14.31
2024-02-29T14:19:51.806Z,14.18
2024-02-29T14:22:19.253Z,14.16
2024-02-29T14:24:50.515Z,14.00
2024-02-29T14:27:18.689Z,13.79
2024-02-29T14:29:46.161Z,13.67
2024-02-29T14:32:14.074Z,13.56
2024-02-29T14:34:41.415Z,13.46
2024-02-29T14:37:09.069Z,13.45
2024-02-29T14:39:37.182Z,13.45
2024-02-29T14:42:07.537Z,13.47
2024-02-29T14:44:35.199Z,13.44
2024-02-29T14:47:03.285Z,13.40
2024-02-29T14:49:30.668Z,13.24
2024-02-29T14:51:58.456Z,13.17
2024-02-29T14:54:26.655Z,13.13
2024-02-29T14:56:54.659Z,13.08
2024-02-29T14:59:23.725Z,13.14
2024-02-29T15:01:52.699Z,13.16
2024-02-29T15:04:20.782Z,13.03
2024-02-29T15:06:48.506Z,12.94
2024-02-29T15:09:15.851Z,12.85
2024-02-29T15:11:43.309Z,12.78
2024-02-29T15:14:10.521Z,12.77
2024-02-29T15:16:39.605Z,12.81
2024-02-29T15:19:07.076Z,12.95
2024-02-29T15:21:34.458Z,13.01
2024-02-29T15:24:02.420Z,13.10
2024-02-29T15:26:29.750Z,13.10
2024-02-29T15:28:56.944Z,12.97
2024-02-29T15:31:24.282Z,12.95
2024-02-29T15:33:56.664Z,12.99
2024-02-29T15:36:24.053Z,13.04
2024-02-29T15:38:53.787Z,13.18
2024-02-29T15:41:21.576Z,13.24
2024-02-29T15:43:49.280Z,13.26
2024-02-29T15:46:17.527Z,13.30
2024-02-29T15:48:45.928Z,13.25
2024-02-29T15:51:15.334Z,13.24
2024-02-29T15:53:42.687Z,13.19
2024-02-29T15:56:11.770Z,13.06
2024-02-29T15:58:39.691Z,12.95
2024-02-29T16:01:07.157Z,12.90
2024-02-29T16:03:35.887Z,12.82
2024-02-29T16:06:03.162Z,12.79
2024-02-29T16:08:32.371Z,12.63
2024-02-29T16:11:00.254Z,12.60
2024-02-29T16:13:29.005Z,12.60
2024-02-29T16:16:00.563Z,12.61
2024-02-29T16:18:28.652Z,12.60
2024-02-29T16:20:56.182Z,12.53
2024-02-29T16:23:23.696Z,12.45
2024-02-29T16:25:53.560Z,12.34
2024-02-29T16:28:21.887Z,12.21
2024-02-29T16:30:50.004Z,12.11
2024-02-29T16:33:17.777Z,12.08
2024-02-29T16:35:45.347Z,12.08
2024-02-29T16:38:12.904Z,12.08
2024-02-29T16:40:46.519Z,12.07
2024-02-29T16:43:16.070Z,12.10
2024-02-29T16:45:43.275Z,12.05
2024-02-29T16:48:11.449Z,11.97
2024-02-29T16:50:40.873Z,11.88
2024-02-29T16:53:09.458Z,11.85
2024-02-29T16:55:37.056Z,11.78
2024-02-29T16:58:05.183Z,11.74
2024-02-29T17:00:35.262Z,11.74
2024-02-29T17:03:03.097Z,11.78
2024-02-29T17:05:30.766Z,11.74
2024-02-29T17:07:58.895Z,11.68
2024-02-29T17:10:26.332Z,11.69
2024-02-29T17:12:54.785Z,11.72
2024-02-29T17:15:22.176Z,11.61
2024-02-29T17:17:51.050Z,11.60
2024-02-29T17:20:18.991Z,11.59
2024-02-29T17:22:46.780Z,11.56
2024-02-29T17:25:14.783Z,11.55
2024-02-29T17:27:42.193Z,11.55
2024-02-29T17:30:11.461Z,11.53
2024-02-29T17:32:39.103Z,11.49
2024-02-29T17:35:10.339Z,11.43
2024-02-29T17:37:37.805Z,11.44
2024-02-29T17:40:05.379Z,11.47
2024-02-29T17:42:33.374Z,11.42
2024-02-29T17:45:00.895Z,11.42
2024-02-29T17:47:29.650Z,11.41
2024-02-29T17:49:56.826Z,11.43
2024-02-29T17:52:26.121Z,11.43
2024-02-29T17:54:53.924Z,11.44
2024-02-29T17:57:21.584Z,11.44
2024-02-29T17:59:48.934Z,11.43
2024-02-29T18:02:17.725Z,11.45
2024-02-29T18:04:45.623Z,11.43
2024-02-29T18:07:15.710Z,11.39
2024-02-29T18:09:44.716Z,11.37
2024-02-29T18:12:12.059Z,11.36
2024-02-29T18:14:39.709Z,11.36
2024-02-29T18:17:07.551Z,11.31
2024-02-29T18:19:35.356Z,11.32
2024-02-29T18:22:02.697Z,11.34
2024-02-29T18:24:30.108Z,11.36
2024-02-29T18:26:59.354Z,11.38
2024-02-29T18:29:28.089Z,11.35
2024-02-29T18:31:55.492Z,11.31
2024-02-29T18:34:22.832Z,11.24
2024-02-29T18:36:50.082Z,11.19
2024-02-29T18:39:17.457Z,11.25
2024-02-29T18:41:44.767Z,11.28
2024-02-29T18:44:14.899Z,11.31
2024-02-29T18:46:42.596Z,11.36
2024-02-29T18:49:10.763Z,11.37
2024-02-29T18:51:43.854Z,11.33
2024-02-29T18:54:11.302Z,11.31
2024-02-29T18:56:38.616Z,11.25
2024-02-29T18:59:06.493Z,11.25
2024-02-29T19:01:35.916Z,11.22
2024-02-29T19:04:03.646Z,11.22
2024-02-29T19:06:31.025Z,11.18
2024-02-29T19:08:59.658Z,11.20
2024-02-29T19:11:27.058Z,11.18
2024-02-29T19:13:54.164Z,11.19
2024-02-29T19:16:21.499Z,11.18
2024-02-29T19:18:50.805Z,11.18
2024-02-29T19:21:18.563Z,11.21
2024-02-29T19:23:45.774Z,11.19
2024-02-29T19:26:13.617Z,11.22
2024-02-29T19:28:40.881Z,11.19
2024-02-29T19:31:08.747Z,11.23
2024-02-29T19:33:36.493Z,11.16
2024-02-29T19:36:06.219Z,11.15
2024-02-29T19:38:33.542Z,11.12
2024-02-29T19:41:00.909Z,11.11
2024-02-29T19:43:28.685Z,11.11
2024-02-29T19:45:56.314Z,11.07
2024-02-29T19:48:24.501Z,11.03
2024-02-29T19:50:52.872Z,10.93
2024-02-29T19:53:21.844Z,10.88
2024-02-29T19:55:49.778Z,10.86
2024-02-29T19:58:17.127Z,10.82
2024-02-29T20:00:47.022Z,10.77
2024-02-29T20:03:15.444Z,10.68
2024-02-29T20:05:43.300Z,10.56
2024-02-29T20:08:10.929Z,10.43
2024-02-29T20:10:40.024Z,10.28
2024-02-29T20:13:07.412Z,10.14
2024-02-29T20:15:34.930Z,9.99
2024-02-29T20:18:02.573Z,9.88
2024-02-29T20:20:29.848Z,9.78
2024-02-29T20:22:57.116Z,9.68
2024-02-29T20:25:24.781Z,9.58
2024-02-29T20:27:55.021Z,9.48
2024-02-29T20:30:23.160Z,9.41
2024-02-29T20:32:51.314Z,9.32
2024-02-29T20:35:20.821Z,9.24
2024-02-29T20:37:48.702Z,9.16
2024-02-29T20:40:16.827Z,9.11
2024-02-29T20:42:44.686Z,9.07
2024-02-29T20:45:16.191Z,9.02
2024-02-29T20:47:45.223Z,8.98
2024-02-29T20:50:13.129Z,8.90
2024-02-29T20:52:40.659Z,8.83
2024-02-29T20:55:08.465Z,8.76
2024-02-29T20:57:37.268Z,8.68
2024-02-29T21:00:05.940Z,8.63
2024-02-29T21:02:35.053Z,8.63
2024-02-29T21:05:02.320Z,8.55
2024-02-29T21:07:32.426Z,8.50
2024-02-29T21:10:02.710Z,8.45
2024-02-29T21:12:30.665Z,8.40
2024-02-29T21:14:58.347Z,8.34
2024-02-29T21:17:25.936Z,8.34
2024-02-29T21:19:55.439Z,8.32
2024-02-29T21:22:23.091Z,8.30
2024-02-29T21:24:50.479Z,8.30
2024-02-29T21:27:17.710Z,8.27
2024-02-29T21:29:45.317Z,8.28
2024-02-29T21:32:12.949Z,8.34
2024-02-29T21:34:43.519Z,8.31
2024-02-29T21:37:13.681Z,8.31
2024-02-29T21:39:44.890Z,8.33
2024-02-29T21:42:13.948Z,8.33
2024-02-29T21:44:41.588Z,8.33
2024-02-29T21:47:09.208Z,8.35
2024-02-29T21:49:36.803Z,8.32
2024-02-29T21:52:04.817Z,8.27
2024-02-29T21:54:33.989Z,8.20
2024-02-29T21:57:01.246Z,8.16
2024-02-29T21:59:28.913Z,8.14
2024-02-29T22:01:56.777Z,8.07
2024-02-29T22:04:24.519Z,7.99
2024-02-29T22:06:52.047Z,7.95
2024-02-29T22:09:19.598Z,7.87
2024-02-29T22:11:48.624Z,7.80
2024-02-29T22:14:15.838Z,7.73
2024-02-29T22:16:43.766Z,7.68
2024-02-29T22:19:12.494Z,7.63
2024-02-29T22:21:39.901Z,7.62
2024-02-29T22:24:07.773Z,7.60
2024-02-29T22:26:35.094Z,7.59
2024-02-29T22:29:04.859Z,7.61
2024-02-29T22:31:34.900Z,7.61
2024-02-29T22:34:02.861Z,7.69
2024-02-29T22:36:30.514Z,7.78
2024-02-29T22:38:57.724Z,7.85
2024-02-29T22:41:25.364Z,7.90
2024-02-29T22:43:52.864Z,7.99
2024-02-29T22:46:21.903Z,8.07
2024-02-29T22:48:49.246Z,8.08
2024-02-29T22:51:17.694Z,8.04
2024-02-29T22:53:45.049Z,7.99
2024-02-29T22:56:12.186Z,7.89
2024-02-29T22:58:40.014Z,7.86
2024-02-29T23:01:07.614Z,7.85
2024-02-29T23:03:37.174Z,7.80
2024-02-29T23:06:04.752Z,7.79
2024-02-29T23:08:32.022Z,7.73
2024-02-29T23:10:59.587Z,7.69
2024-02-29T23:13:27.348Z,7.58
2024-02-29T23:15:55.215Z,7.49
2024-02-29T23:18:22.849Z,7.46
2024-02-29T23:20:52.605Z,7.44
2024-02-29T23:23:20.271Z,7.42
2024-02-29T23:25:47.818Z,7.43
2024-02-29T23:28:16.363Z,7.44
2024-02-29T23:30:44.146Z,7.45
2024-02-29T23:33:11.721Z,7.45
2024-02-29T23:35:38.874Z,7.44
2024-02-29T23:38:07.742Z,7.44
2024-02-29T23:40:35.045Z,7.42
2024-02-29T23:43:02.647Z,7.42
2024-02-29T23:45:29.914Z,7.42
2024-02-29T23:47:57.514Z,7.40
2024-02-29T23:50:25.274Z,7.37
2024-02-29T23:52:52.950Z,7.33
2024-02-29T23:55:22.404Z,7.31
2024-02-29T23:57:52.036Z,7.32
